createdAt,value
2022-12-03T00:02:21.531Z,5.23
2022-12-03T00:04:48.349Z,5.24
2022-12-03T00:07:15.133Z,5.21
2022-12-03T00:09:42.655Z,5.23
2022-12-03T00:12:09.445Z,5.24
2022-12-03T00:14:39.963Z,5.24
2022-12-03T00:17:09.760Z,5.25
2022-12-03T00:19:36.526Z,5.26
2022-12-03T00:22:03.287Z,5.26
2022-12-03T00:24:30.073Z,5.23
2022-12-03T00:26:56.873Z,5.22
2022-12-03T00:29:23.716Z,5.21
2022-12-03T00:31:50.479Z,5.18
2022-12-03T00:34:17.298Z,5.15
2022-12-03T00:36:44.062Z,5.15
2022-12-03T00:39:10.847Z,5.16
2022-12-03T00:41:37.599Z,5.15
2022-12-03T00:44:04.508Z,5.13
2022-12-03T00:46:31.344Z,5.10
2022-12-03T00:48:58.188Z,5.08
2022-12-03T00:51:24.944Z,5.09
2022-12-03T00:53:51.735Z,5.08
2022-12-03T00:56:18.491Z,5.07
2022-12-03T00:58:45.317Z,5.09
2022-12-03T01:01:12.075Z,5.07
2022-12-03T01:03:38.899Z,5.08
2022-12-03T01:06:05.805Z,5.08
2022-12-03T01:08:32.564Z,5.08
2022-12-03T01:10:59.386Z,5.09
2022-12-03T01:13:26.153Z,5.11
2022-12-03T01:15:53.632Z,5.10
2022-12-03T01:18:20.644Z,5.10
2022-12-03T01:20:47.456Z,5.09
2022-12-03T01:23:14.209Z,5.10
2022-12-03T01:25:41.004Z,5.08
2022-12-03T01:28:07.764Z,5.06
2022-12-03T01:30:54.599Z,5.05
2022-12-03T01:33:21.445Z,5.05
2022-12-03T01:35:48.198Z,5.07
2022-12-03T01:38:14.939Z,5.08
2022-12-03T01:40:41.796Z,5.10
2022-12-03T01:43:08.546Z,5.09
2022-12-03T01:45:35.424Z,5.09
2022-12-03T01:48:02.233Z,5.08
2022-12-03T01:50:33.407Z,5.10
2022-12-03T01:53:02.501Z,5.10
2022-12-03T01:55:29.756Z,5.11
2022-12-03T01:57:59.871Z,5.11
2022-12-03T02:00:28.233Z,5.11
2022-12-03T02:02:59.711Z,5.08
2022-12-03T02:05:29.440Z,5.07
2022-12-03T02:07:56.647Z,5.05
2022-12-03T02:10:32.194Z,5.05
2022-12-03T02:13:07.054Z,5.03
2022-12-03T02:15:34.968Z,5.00
2022-12-03T02:18:02.384Z,5.00
2022-12-03T02:20:33.452Z,5.04
2022-12-03T02:23:37.352Z,5.00
2022-12-03T02:26:04.189Z,5.00
2022-12-03T02:28:31.344Z,4.99
2022-12-03T02:30:58.204Z,4.99
2022-12-03T02:33:25.079Z,5.00
2022-12-03T02:35:51.858Z,4.99
2022-12-03T02:38:25.377Z,4.99
2022-12-03T02:40:56.685Z,4.97
2022-12-03T02:43:24.249Z,4.96
2022-12-03T02:45:55.259Z,4.95
2022-12-03T02:48:39.986Z,4.92
2022-12-03T02:51:10.347Z,4.90
2022-12-03T02:53:44.308Z,4.88
2022-12-03T02:56:14.548Z,4.83
2022-12-03T02:58:43.062Z,4.80
2022-12-03T03:01:10.340Z,4.80
2022-12-03T03:03:38.222Z,4.82
2022-12-03T03:06:07.251Z,4.85
2022-12-03T03:08:35.295Z,4.87
2022-12-03T03:11:02.593Z,4.88
2022-12-03T03:13:31.333Z,4.86
2022-12-03T03:15:58.794Z,4.87
2022-12-03T03:18:25.758Z,4.86
2022-12-03T03:20:53.629Z,4.87
2022-12-03T03:23:23.543Z,4.85
2022-12-03T03:26:03.166Z,4.86
2022-12-03T03:28:31.285Z,4.83
2022-12-03T03:31:00.622Z,4.83
2022-12-03T03:33:27.691Z,4.83
2022-12-03T03:35:54.855Z,4.82
2022-12-03T03:38:23.410Z,4.81
2022-12-03T03:40:52.085Z,4.82
2022-12-03T03:43:20.849Z,4.83
2022-12-03T03:45:48.198Z,4.80
2022-12-03T03:48:15.539Z,4.81
2022-12-03T03:50:43.768Z,4.82
2022-12-03T03:53:12.174Z,4.81
2022-12-03T03:55:40.618Z,4.82
2022-12-03T03:58:07.699Z,4.80
2022-12-03T04:00:36.363Z,4.81
2022-12-03T04:03:04.907Z,4.80
2022-12-03T04:05:31.897Z,4.81
2022-12-03T04:07:59.222Z,4.77
2022-12-03T04:10:44.451Z,4.78
2022-12-03T04:13:11.213Z,4.76
2022-12-03T04:15:37.967Z,4.77
2022-12-03T04:18:31.166Z,4.76
2022-12-03T04:21:17.895Z,4.74
2022-12-03T04:23:44.731Z,4.73
2022-12-03T04:26:29.921Z,4.72
2022-12-03T04:28:56.722Z,4.71
2022-12-03T04:31:41.859Z,4.68
2022-12-03T04:34:28.587Z,4.68
2022-12-03T04:36:55.683Z,4.67
2022-12-03T04:39:22.659Z,4.69
2022-12-03T04:41:49.433Z,4.70
2022-12-03T04:44:36.207Z,4.70
2022-12-03T04:47:13.448Z,4.69
2022-12-03T04:49:44.646Z,4.68
2022-12-03T04:52:13.486Z,4.66
2022-12-03T04:54:41.169Z,4.68
2022-12-03T04:57:09.389Z,4.67
2022-12-03T04:59:37.080Z,4.67
2022-12-03T05:02:05.762Z,4.67
2022-12-03T05:04:32.798Z,4.66
2022-12-03T05:06:59.556Z,4.63
2022-12-03T05:09:26.362Z,4.62
2022-12-03T05:11:53.144Z,4.61
2022-12-03T05:14:19.935Z,4.60
2022-12-03T05:16:46.800Z,4.58
2022-12-03T05:19:13.625Z,4.56
2022-12-03T05:21:40.415Z,4.54
2022-12-03T05:24:07.336Z,4.53
2022-12-03T05:26:34.218Z,4.52
2022-12-03T05:29:00.996Z,4.51
2022-12-03T05:31:27.984Z,4.51
2022-12-03T05:33:55.073Z,4.51
2022-12-03T05:36:21.925Z,4.49
2022-12-03T05:38:48.785Z,4.52
2022-12-03T05:41:34.109Z,4.52
2022-12-03T05:44:00.978Z,4.50
2022-12-03T05:46:27.887Z,4.49
2022-12-03T05:48:54.729Z,4.49
2022-12-03T05:51:21.554Z,4.48
2022-12-03T05:53:48.362Z,4.47
2022-12-03T05:56:15.144Z,4.48
2022-12-03T05:58:41.936Z,4.48
2022-12-03T06:01:08.709Z,4.48
2022-12-03T06:03:35.580Z,4.47
2022-12-03T06:06:02.533Z,4.47
2022-12-03T06:08:29.330Z,4.47
2022-12-03T06:10:56.112Z,4.46
2022-12-03T06:13:22.874Z,4.47
2022-12-03T06:15:49.780Z,4.46
2022-12-03T06:18:16.625Z,4.46
2022-12-03T06:20:43.399Z,4.44
2022-12-03T06:23:10.252Z,4.42
2022-12-03T06:25:37.083Z,4.42
2022-12-03T06:28:04.019Z,4.40
2022-12-03T06:30:30.812Z,4.41
2022-12-03T06:32:57.655Z,4.41
2022-12-03T06:35:24.475Z,4.41
2022-12-03T06:37:51.241Z,4.40
2022-12-03T06:40:18.104Z,4.40
2022-12-03T06:42:44.918Z,4.40
2022-12-03T06:45:11.951Z,4.42
2022-12-03T06:47:38.870Z,4.43
2022-12-03T06:50:08.991Z,4.42
2022-12-03T06:52:36.265Z,4.41
2022-12-03T06:55:03.713Z,4.43
2022-12-03T06:57:30.596Z,4.42
2022-12-03T06:59:57.418Z,4.43
2022-12-03T07:02:24.556Z,4.42
2022-12-03T07:04:51.491Z,4.40
2022-12-03T07:07:18.305Z,4.41
2022-12-03T07:09:45.104Z,4.39
2022-12-03T07:12:11.890Z,4.37
2022-12-03T07:14:38.830Z,4.38
2022-12-03T07:17:05.650Z,4.39
2022-12-03T07:19:33.177Z,4.40
2022-12-03T07:22:00.357Z,4.41
2022-12-03T07:24:27.555Z,4.41
2022-12-03T07:26:54.468Z,4.42
2022-12-03T07:29:21.270Z,4.42
2022-12-03T07:31:48.194Z,4.40
2022-12-03T07:34:15.066Z,4.39
2022-12-03T07:36:41.903Z,4.40
2022-12-03T07:39:08.733Z,4.39
2022-12-03T07:41:35.564Z,4.39
2022-12-03T07:44:02.378Z,4.36
2022-12-03T07:46:29.204Z,4.36
2022-12-03T07:48:56.015Z,4.34
2022-12-03T07:51:26.198Z,4.35
2022-12-03T07:53:57.373Z,4.35
2022-12-03T07:56:24.151Z,4.36
2022-12-03T07:58:50.962Z,4.37
2022-12-03T08:01:17.889Z,4.35
2022-12-03T08:03:45.155Z,4.34
2022-12-03T08:06:11.973Z,4.33
2022-12-03T08:08:41.505Z,4.32
2022-12-03T08:11:14.761Z,4.34
2022-12-03T08:13:41.561Z,4.33
2022-12-03T08:16:18.044Z,4.35
2022-12-03T08:18:46.493Z,4.35
2022-12-03T08:21:16.387Z,4.34
2022-12-03T08:23:43.634Z,4.33
2022-12-03T08:26:25.055Z,4.34
2022-12-03T08:28:55.143Z,4.33
2022-12-03T08:31:32.465Z,4.36
2022-12-03T08:34:22.403Z,4.36
2022-12-03T08:36:56.242Z,4.33
2022-12-03T08:39:31.500Z,4.34
2022-12-03T08:42:41.704Z,4.32
2022-12-03T08:45:32.165Z,4.32
2022-12-03T08:48:07.830Z,4.31
2022-12-03T08:50:42.938Z,4.30
2022-12-03T08:53:46.600Z,4.33
2022-12-03T08:56:26.043Z,4.36
2022-12-03T08:59:08.059Z,4.38
2022-12-03T09:01:42.426Z,4.41
2022-12-03T09:04:34.763Z,4.42
2022-12-03T09:07:01.737Z,4.43
2022-12-03T09:09:28.943Z,4.42
2022-12-03T09:11:56.388Z,4.43
2022-12-03T09:14:23.591Z,4.46
2022-12-03T09:16:55.390Z,4.44
2022-12-03T09:19:24.458Z,4.44
2022-12-03T09:21:51.965Z,4.44
2022-12-03T09:24:18.818Z,4.42
2022-12-03T09:26:45.713Z,4.44
2022-12-03T09:29:13.119Z,4.46
2022-12-03T09:31:40.700Z,4.48
2022-12-03T09:34:07.903Z,4.50
2022-12-03T09:36:35.063Z,4.51
2022-12-03T09:39:02.143Z,4.54
2022-12-03T09:41:29.144Z,4.55
2022-12-03T09:44:05.512Z,4.60
2022-12-03T09:46:35.172Z,4.61
2022-12-03T09:49:03.488Z,4.61
2022-12-03T09:51:39.613Z,4.61
2022-12-03T09:54:07.620Z,4.60
2022-12-03T09:56:37.773Z,4.62
2022-12-03T09:59:14.505Z,4.64
2022-12-03T10:01:41.752Z,4.61
2022-12-03T10:04:09.227Z,4.61
2022-12-03T10:06:38.834Z,4.62
2022-12-03T10:09:11.795Z,4.63
2022-12-03T10:11:39.062Z,4.66
2022-12-03T10:14:06.447Z,4.69
2022-12-03T10:16:34.184Z,4.71
2022-12-03T10:19:01.586Z,4.70
2022-12-03T10:21:39.230Z,4.69
2022-12-03T10:24:23.441Z,4.71
2022-12-03T10:26:53.589Z,4.74
2022-12-03T10:29:33.974Z,4.73
2022-12-03T10:32:07.099Z,4.74
2022-12-03T10:34:40.183Z,4.78
2022-12-03T10:37:19.796Z,4.81
2022-12-03T10:40:20.671Z,4.85
2022-12-03T10:43:13.092Z,4.88
2022-12-03T10:46:04.846Z,4.93
2022-12-03T10:49:11.174Z,4.96
2022-12-03T10:51:50.993Z,4.91
2022-12-03T10:58:41.302Z,4.87
2022-12-03T11:01:51.008Z,4.86
2022-12-03T11:04:32.099Z,4.85
2022-12-03T11:07:25.117Z,4.89
2022-12-03T11:09:56.046Z,4.90
2022-12-03T11:15:44.283Z,4.98
2022-12-03T11:18:13.322Z,5.01
2022-12-03T11:21:14.281Z,5.03
2022-12-03T11:23:47.263Z,5.06
2022-12-03T11:26:43.289Z,5.07
2022-12-03T11:29:14.635Z,5.10
2022-12-03T11:31:42.529Z,5.13
2022-12-03T11:34:18.175Z,5.15
2022-12-03T11:37:10.056Z,5.15
2022-12-03T11:39:52.670Z,5.16
2022-12-03T11:42:25.235Z,5.17
2022-12-03T11:45:08.360Z,5.19
2022-12-03T11:47:39.965Z,5.17
2022-12-03T11:50:39.692Z,5.17
2022-12-03T11:53:23.062Z,5.17
2022-12-03T11:56:11.070Z,5.16
2022-12-03T11:58:45.214Z,5.14
2022-12-03T12:01:14.212Z,5.14
2022-12-03T12:03:50.349Z,5.13
2022-12-03T12:06:20.551Z,5.11
2022-12-03T12:08:58.482Z,5.11
2022-12-03T12:11:36.443Z,5.09
2022-12-03T12:14:13.346Z,5.07
2022-12-03T12:16:50.764Z,5.05
2022-12-03T12:19:42.883Z,5.03
2022-12-03T12:22:19.244Z,5.02
2022-12-03T12:24:50.712Z,5.02
2022-12-03T12:27:45.010Z,5.04
2022-12-03T12:30:20.467Z,5.06
2022-12-03T12:33:01.798Z,5.05
2022-12-03T12:35:32.444Z,5.05
2022-12-03T12:38:10.680Z,5.03
2022-12-03T12:40:44.552Z,5.02
2022-12-03T12:43:24.005Z,5.00
2022-12-03T12:45:58.380Z,4.98
2022-12-03T12:48:28.613Z,4.97
2022-12-03T12:51:12.893Z,4.95
2022-12-03T12:53:42.803Z,4.91
2022-12-03T12:56:32.576Z,4.91
2022-12-03T12:59:20.676Z,4.89
2022-12-03T13:01:49.366Z,4.88
2022-12-03T13:04:20.497Z,4.88
2022-12-03T13:06:49.607Z,4.87
2022-12-03T13:09:18.972Z,4.87
2022-12-03T13:11:52.729Z,4.88
2022-12-03T13:14:31.320Z,4.87
2022-12-03T13:17:01.597Z,4.83
2022-12-03T13:19:43.515Z,4.81
2022-12-03T13:22:25.413Z,4.80
2022-12-03T13:24:55.980Z,4.77
2022-12-03T13:27:30.311Z,4.76
2022-12-03T13:30:03.647Z,4.74
2022-12-03T13:32:37.765Z,4.72
2022-12-03T13:35:07.907Z,4.66
2022-12-03T13:37:34.732Z,4.62
2022-12-03T13:40:31.735Z,4.64
2022-12-03T13:42:59.391Z,4.63
2022-12-03T13:45:36.787Z,4.64
2022-12-03T13:48:23.153Z,4.65
2022-12-03T13:50:51.725Z,4.67
2022-12-03T13:53:31.727Z,4.69
2022-12-03T13:56:27.777Z,4.71
2022-12-03T13:58:56.334Z,4.73
2022-12-03T14:01:23.302Z,4.73
2022-12-03T14:03:50.483Z,4.74
2022-12-03T14:06:17.417Z,4.74
2022-12-03T14:08:44.469Z,4.75
2022-12-03T14:11:31.344Z,4.76
2022-12-03T14:13:58.112Z,4.74
2022-12-03T14:16:24.940Z,4.77
2022-12-03T14:18:51.741Z,4.74
2022-12-03T14:21:18.563Z,4.75
2022-12-03T14:23:45.401Z,4.73
2022-12-03T14:26:12.180Z,4.72
2022-12-03T14:28:38.940Z,4.73
2022-12-03T14:31:05.824Z,4.74
2022-12-03T14:33:32.643Z,4.76
2022-12-03T14:35:59.531Z,4.75
2022-12-03T14:38:26.340Z,4.74
2022-12-03T14:40:53.133Z,4.72
2022-12-03T14:43:19.917Z,4.72
2022-12-03T14:45:46.782Z,4.74
2022-12-03T14:48:13.605Z,4.72
2022-12-03T14:50:40.399Z,4.72
2022-12-03T14:53:07.157Z,4.70
2022-12-03T14:55:33.944Z,4.69
2022-12-03T14:58:00.711Z,4.69
2022-12-03T15:00:27.480Z,4.69
2022-12-03T15:02:54.301Z,4.68
2022-12-03T15:05:28.048Z,4.66
2022-12-03T15:07:55.542Z,4.68
2022-12-03T15:10:22.540Z,4.67
2022-12-03T15:12:49.300Z,4.65
2022-12-03T15:15:16.144Z,4.63
2022-12-03T15:17:45.516Z,4.62
2022-12-03T15:20:12.946Z,4.61
2022-12-03T15:22:39.711Z,4.61
2022-12-03T15:25:07.660Z,4.59
2022-12-03T15:27:34.446Z,4.59
2022-12-03T15:30:01.226Z,4.59
2022-12-03T15:32:28.027Z,4.60
2022-12-03T15:34:54.812Z,4.60
2022-12-03T15:37:21.586Z,4.59
2022-12-03T15:39:52.818Z,4.61
2022-12-03T15:42:19.747Z,4.62
2022-12-03T15:44:46.525Z,4.64
2022-12-03T15:47:13.311Z,4.63
2022-12-03T15:49:40.133Z,4.62
2022-12-03T15:52:07.825Z,4.61
2022-12-03T15:54:34.653Z,4.61
2022-12-03T15:57:01.538Z,4.60
2022-12-03T15:59:28.328Z,4.61
2022-12-03T16:01:55.180Z,4.60
2022-12-03T16:04:21.986Z,4.59
2022-12-03T16:06:48.785Z,4.60
2022-12-03T16:09:27.002Z,4.60
2022-12-03T16:11:54.751Z,4.60
2022-12-03T16:14:21.623Z,4.61
2022-12-03T16:16:48.406Z,4.60
2022-12-03T16:19:15.301Z,4.59
2022-12-03T16:21:42.040Z,4.59
2022-12-03T16:24:08.820Z,4.60
2022-12-03T16:26:35.652Z,4.60
2022-12-03T16:29:02.496Z,4.60
2022-12-03T16:31:29.521Z,4.60
2022-12-03T16:33:56.412Z,4.62
2022-12-03T16:36:23.185Z,4.61
2022-12-03T16:38:49.938Z,4.60
2022-12-03T16:41:16.757Z,4.60
2022-12-03T16:43:46.228Z,4.62
2022-12-03T16:46:18.653Z,4.63
2022-12-03T16:48:46.934Z,4.64
2022-12-03T16:51:13.796Z,4.66
2022-12-03T16:53:40.599Z,4.65
2022-12-03T16:56:07.653Z,4.64
2022-12-03T16:58:34.434Z,4.64
2022-12-03T17:01:01.713Z,4.62
2022-12-03T17:03:33.647Z,4.59
2022-12-03T17:06:01.767Z,4.59
2022-12-03T17:08:28.652Z,4.57
2022-12-03T17:10:55.664Z,4.57
2022-12-03T17:13:25.630Z,4.57
2022-12-03T17:15:52.537Z,4.56
2022-12-03T17:18:19.396Z,4.56
2022-12-03T17:20:46.138Z,4.55
2022-12-03T17:23:12.916Z,4.56
2022-12-03T17:25:39.691Z,4.55
2022-12-03T17:28:06.464Z,4.56
2022-12-03T17:30:33.304Z,4.57
2022-12-03T17:33:00.083Z,4.57
2022-12-03T17:35:28.485Z,4.58
2022-12-03T17:37:55.822Z,4.58
2022-12-03T17:40:23.678Z,4.57
2022-12-03T17:42:50.467Z,4.55
2022-12-03T17:45:17.379Z,4.57
2022-12-03T17:47:44.587Z,4.55
2022-12-03T17:50:11.892Z,4.56
2022-12-03T17:52:38.640Z,4.55
2022-12-03T17:55:12.766Z,4.54
2022-12-03T17:57:41.245Z,4.53
2022-12-03T18:00:08.943Z,4.53
2022-12-03T18:02:35.732Z,4.53
2022-12-03T18:05:02.548Z,4.53
2022-12-03T18:07:29.320Z,4.55
2022-12-03T18:09:56.340Z,4.53
2022-12-03T18:12:23.422Z,4.51
2022-12-03T18:14:50.171Z,4.53
2022-12-03T18:17:16.954Z,4.51
2022-12-03T18:19:43.847Z,4.52
2022-12-03T18:22:11.146Z,4.52
2022-12-03T18:24:37.995Z,4.54
2022-12-03T18:27:04.802Z,4.54
2022-12-03T18:29:31.860Z,4.56
2022-12-03T18:31:58.687Z,4.57
2022-12-03T18:34:25.561Z,4.57
2022-12-03T18:36:52.378Z,4.57
2022-12-03T18:39:26.827Z,4.58
2022-12-03T18:41:54.235Z,4.56
2022-12-03T18:44:21.414Z,4.54
2022-12-03T18:46:55.573Z,4.54
2022-12-03T18:49:22.692Z,4.53
2022-12-03T18:51:53.293Z,4.50
2022-12-03T18:54:24.349Z,4.51
2022-12-03T18:56:51.108Z,4.50
2022-12-03T18:59:17.936Z,4.51
2022-12-03T19:01:44.989Z,4.51
2022-12-03T19:04:11.863Z,4.53
2022-12-03T19:06:38.645Z,4.53
2022-12-03T19:09:05.428Z,4.56
2022-12-03T19:11:33.913Z,4.56
2022-12-03T19:14:02.712Z,4.57
2022-12-03T19:16:29.584Z,4.56
2022-12-03T19:18:57.081Z,4.58
2022-12-03T19:21:23.905Z,4.59
2022-12-03T19:24:16.409Z,4.58
2022-12-03T19:26:37.504Z,4.54
2022-12-03T19:29:04.367Z,4.51
2022-12-03T19:31:33.288Z,4.49
2022-12-03T19:34:00.311Z,4.48
2022-12-03T19:36:30.269Z,4.48
2022-12-03T19:38:59.426Z,4.49
2022-12-03T19:41:30.324Z,4.49
2022-12-03T19:43:57.964Z,4.50
2022-12-03T19:46:29.138Z,4.50
2022-12-03T19:48:56.184Z,4.49
2022-12-03T19:51:34.715Z,4.48
2022-12-03T19:54:06.419Z,4.48
2022-12-03T19:56:34.382Z,4.49
2022-12-03T19:59:01.510Z,4.50
2022-12-03T20:01:31.468Z,4.52
2022-12-03T20:04:00.624Z,4.51
2022-12-03T20:06:33.038Z,4.51
2022-12-03T20:09:11.361Z,4.53
2022-12-03T20:11:40.656Z,4.50
2022-12-03T20:14:12.817Z,4.49
2022-12-03T20:16:39.913Z,4.49
2022-12-03T20:19:08.441Z,4.50
2022-12-03T20:21:37.313Z,4.49
2022-12-03T20:24:05.236Z,4.49
2022-12-03T20:26:32.745Z,4.49
2022-12-03T20:28:59.974Z,4.50
2022-12-03T20:31:29.952Z,4.51
2022-12-03T20:34:01.389Z,4.54
2022-12-03T20:36:30.277Z,4.54
2022-12-03T20:39:00.716Z,4.54
2022-12-03T20:41:27.871Z,4.54
2022-12-03T20:43:54.866Z,4.53
2022-12-03T20:46:26.106Z,4.52
2022-12-03T20:48:54.056Z,4.53
2022-12-03T20:51:24.941Z,4.52
2022-12-03T20:53:52.477Z,4.53
2022-12-03T20:56:23.432Z,4.51
2022-12-03T20:58:50.713Z,4.51
2022-12-03T21:01:21.767Z,4.50
2022-12-03T21:03:50.189Z,4.54
2022-12-03T21:06:17.827Z,4.55
2022-12-03T21:08:45.179Z,4.56
2022-12-03T21:11:24.157Z,4.57
2022-12-03T21:13:51.663Z,4.55
2022-12-03T21:16:52.027Z,4.55
2022-12-03T21:19:12.456Z,4.55
2022-12-03T21:21:39.206Z,4.54
2022-12-03T21:24:06.327Z,4.52
2022-12-03T21:26:33.913Z,4.54
2022-12-03T21:29:00.684Z,4.54
2022-12-03T21:31:27.627Z,4.54
2022-12-03T21:33:56.354Z,4.54
2022-12-03T21:36:25.037Z,4.53
2022-12-03T21:38:52.626Z,4.49
2022-12-03T21:41:19.595Z,4.48
2022-12-03T21:43:46.366Z,4.48
2022-12-03T21:47:10.952Z,4.47
2022-12-03T21:49:02.013Z,4.44
2022-12-03T21:51:28.879Z,4.42
2022-12-03T21:53:55.724Z,4.42
2022-12-03T21:56:22.580Z,4.41
2022-12-03T21:58:49.397Z,4.39
2022-12-03T22:01:23.482Z,4.42
2022-12-03T22:03:51.129Z,4.41
2022-12-03T22:06:18.783Z,4.42
2022-12-03T22:08:45.966Z,4.43
2022-12-03T22:11:23.550Z,4.45
2022-12-03T22:13:51.345Z,4.45
2022-12-03T22:16:20.885Z,4.48
2022-12-03T22:18:48.292Z,4.46
2022-12-03T22:21:19.768Z,4.47
2022-12-03T22:23:46.576Z,4.46
2022-12-03T22:26:16.063Z,4.47
2022-12-03T22:28:48.308Z,4.50
2022-12-03T22:31:17.183Z,4.51
2022-12-03T22:33:47.929Z,4.51
2022-12-03T22:36:20.526Z,4.51
2022-12-03T22:38:48.859Z,4.50
2022-12-03T22:41:16.289Z,4.49
2022-12-03T22:43:43.237Z,4.49
2022-12-03T22:46:12.404Z,4.50
2022-12-03T22:48:41.376Z,4.51
2022-12-03T22:51:21.009Z,4.51
2022-12-03T22:53:48.744Z,4.51
2022-12-03T22:56:17.104Z,4.50
2022-12-03T22:58:43.892Z,4.51
2022-12-03T23:01:27.830Z,4.54
2022-12-03T23:03:54.938Z,4.52
2022-12-03T23:06:22.763Z,4.52
2022-12-03T23:08:50.484Z,4.53
2022-12-03T23:11:18.011Z,4.55
2022-12-03T23:13:44.833Z,4.55
2022-12-03T23:16:26.201Z,4.56
2022-12-03T23:18:53.383Z,4.55
2022-12-03T23:21:29.378Z,4.54
2022-12-03T23:23:58.967Z,4.53
2022-12-03T23:26:26.700Z,4.55
